Volkel, Nederland

11:02 AM CEST op 30 augustus 2016 (GMT +0200)
Uden-Melle | | Change Station

Hoogte 69 ft 51.67 °N, 5.64 °E | Updated 1 minute ago

Clear
Helder
71.8 °F
Voelt als 75 °F
N
2.0
Wind Variabel Wind van ZZO
Gusts 4.0 mijl/u

Vandaag
Hoog -- | Laag -- °F
--% Kans op neerslag
Gisteren
Hoog -- | Laag -- °F
Precip. -- inches
Druk 30.33 inches
Zicht 6.2 mijlen
Wolken
Warmteindex 75 °F
Dauwpunt 59 °F
Vochtigheid 65%
Neerslag 0.00 inches
Dikte sneeuw Niet beschikbaar.
6:46 AM 8:27 PM
Afnemende halvemaan, 4% visible
METAR EHVK 300855Z AUTO VRB02KT 9999 NCD 20/13 Q1027 BLU VRB02KT CAVOK
Druk 30.33 inches
Zicht 6.2 mijlen
Wolken
Warmteindex 75 °F
Dauwpunt 59 °F
Vochtigheid 65%
Neerslag 0.00 inches
Dikte sneeuw Niet beschikbaar.
6:46 AM 8:27 PM
Afnemende halvemaan, 4% visible
METAR EHVK 300855Z AUTO VRB02KT 9999 NCD 20/13 Q1027 BLU VRB02KT CAVOK

10-Day Weather Forecast

×

Almanac

Astronomie

Aug. 30, 2016 Opkomst Ondergang
Werkelijke tijd
Burgerlijke schemering
Nautische schemering
Astronomische schemering
Maan
Golflengte van het zichtbare licht
Daglengte
Tomorrow will be .
, % of the Moon is Illuminated

Extremen vandaag

Country Highs Country Lows

Community

WunderPhotos

Upload Photos

1,935,795 foto’s ge-upload!

WunderBlog® & News

Nearby

Luchtkwaliteit

  Luchtkwaliteit LK-index Verontreinigende stof
Not available.

Dikte sneeuw

Station Depth Geometrische hoogte

Aardbevingen

Stad Distance Mag. Time & Date
Minimum magnitude displayed is 2.5.

Watertemperatuur langs de kust

Plaats Temperatuur

Stations

Nabije weerstations

Locatie station Temp. Gevoelstemperatuur Dauwpunt Vochtigheid Wind Precip. Hoogte Geactualiseerd Type